sensor_id;sensor_type;location;lat;lon;timestamp;P1;durP1;ratioP1;P2;durP2;ratioP2
12214;SDS011;6170;42.206;24.142;2022-11-04T00:02:00;31.05;;;15.73;;
12214;SDS011;6170;42.206;24.142;2022-11-04T00:04:28;27.75;;;15.52;;
12214;SDS011;6170;42.206;24.142;2022-11-04T00:06:57;29.45;;;14.85;;
12214;SDS011;6170;42.206;24.142;2022-11-04T00:09:25;71.13;;;16.80;;
12214;SDS011;6170;42.206;24.142;2022-11-04T00:11:52;54.25;;;16.02;;
12214;SDS011;6170;42.206;24.142;2022-11-04T00:14:37;32.85;;;14.25;;
12214;SDS011;6170;42.206;24.142;2022-11-04T00:17:04;36.08;;;15.15;;
12214;SDS011;6170;42.206;24.142;2022-11-04T00:19:47;44.92;;;14.57;;
12214;SDS011;6170;42.206;24.142;2022-11-04T00:22:34;37.38;;;13.48;;
12214;SDS011;6170;42.206;24.142;2022-11-04T00:25:18;26.83;;;13.13;;
12214;SDS011;6170;42.206;24.142;2022-11-04T00:28:03;25.90;;;13.02;;
12214;SDS011;6170;42.206;24.142;2022-11-04T00:30:52;28.15;;;14.13;;
12214;SDS011;6170;42.206;24.142;2022-11-04T00:33:20;21.95;;;12.80;;
12214;SDS011;6170;42.206;24.142;2022-11-04T00:35:52;32.30;;;13.97;;
12214;SDS011;6170;42.206;24.142;2022-11-04T00:38:22;22.70;;;13.13;;
12214;SDS011;6170;42.206;24.142;2022-11-04T00:40:50;27.55;;;13.77;;
12214;SDS011;6170;42.206;24.142;2022-11-04T00:43:17;21.92;;;12.90;;
12214;SDS011;6170;42.206;24.142;2022-11-04T00:45:43;31.40;;;14.50;;
12214;SDS011;6170;42.206;24.142;2022-11-04T00:48:10;24.83;;;13.90;;
12214;SDS011;6170;42.206;24.142;2022-11-04T00:50:37;27.30;;;14.35;;
12214;SDS011;6170;42.206;24.142;2022-11-04T00:53:04;29.05;;;14.10;;
12214;SDS011;6170;42.206;24.142;2022-11-04T00:55:32;31.05;;;14.82;;
12214;SDS011;6170;42.206;24.142;2022-11-04T00:57:59;30.25;;;15.75;;
12214;SDS011;6170;42.206;24.142;2022-11-04T01:00:26;25.70;;;13.70;;
12214;SDS011;6170;42.206;24.142;2022-11-04T01:02:54;22.98;;;13.48;;
12214;SDS011;6170;42.206;24.142;2022-11-04T01:05:21;26.65;;;14.07;;
12214;SDS011;6170;42.206;24.142;2022-11-04T01:07:48;26.90;;;13.88;;
12214;SDS011;6170;42.206;24.142;2022-11-04T01:10:15;31.05;;;14.65;;
12214;SDS011;6170;42.206;24.142;2022-11-04T01:12:43;26.02;;;14.23;;
12214;SDS011;6170;42.206;24.142;2022-11-04T01:15:10;29.10;;;15.60;;
12214;SDS011;6170;42.206;24.142;2022-11-04T01:17:37;32.80;;;14.70;;
12214;SDS011;6170;42.206;24.142;2022-11-04T01:20:04;69.53;;;18.80;;
12214;SDS011;6170;42.206;24.142;2022-11-04T01:22:31;78.28;;;17.20;;
12214;SDS011;6170;42.206;24.142;2022-11-04T01:24:58;48.00;;;15.23;;
12214;SDS011;6170;42.206;24.142;2022-11-04T01:27:24;39.70;;;15.43;;
12214;SDS011;6170;42.206;24.142;2022-11-04T01:29:52;27.08;;;13.68;;
12214;SDS011;6170;42.206;24.142;2022-11-04T01:32:19;27.77;;;13.85;;
12214;SDS011;6170;42.206;24.142;2022-11-04T01:34:46;26.63;;;13.43;;
12214;SDS011;6170;42.206;24.142;2022-11-04T01:37:13;24.15;;;14.13;;
12214;SDS011;6170;42.206;24.142;2022-11-04T01:39:39;26.58;;;14.18;;
12214;SDS011;6170;42.206;24.142;2022-11-04T01:42:08;28.88;;;14.45;;
12214;SDS011;6170;42.206;24.142;2022-11-04T01:44:45;29.30;;;14.30;;
12214;SDS011;6170;42.206;24.142;2022-11-04T01:47:16;613.72;;;65.63;;
12214;SDS011;6170;42.206;24.142;2022-11-04T01:49:46;416.55;;;45.38;;
12214;SDS011;6170;42.206;24.142;2022-11-04T01:52:17;158.88;;;23.42;;
12214;SDS011;6170;42.206;24.142;2022-11-04T01:54:49;29.70;;;15.45;;
12214;SDS011;6170;42.206;24.142;2022-11-04T01:57:22;33.72;;;15.60;;
12214;SDS011;6170;42.206;24.142;2022-11-04T01:59:52;35.60;;;14.93;;
12214;SDS011;6170;42.206;24.142;2022-11-04T02:02:21;34.42;;;14.18;;
12214;SDS011;6170;42.206;24.142;2022-11-04T02:04:48;35.00;;;15.80;;
12214;SDS011;6170;42.206;24.142;2022-11-04T02:07:15;40.70;;;15.88;;
12214;SDS011;6170;42.206;24.142;2022-11-04T02:09:42;26.92;;;13.70;;
12214;SDS011;6170;42.206;24.142;2022-11-04T02:12:10;35.25;;;15.18;;
12214;SDS011;6170;42.206;24.142;2022-11-04T02:14:54;607.00;;;62.25;;
12214;SDS011;6170;42.206;24.142;2022-11-04T02:17:41;188.90;;;26.75;;
12214;SDS011;6170;42.206;24.142;2022-11-04T02:20:27;42.03;;;15.90;;
12214;SDS011;6170;42.206;24.142;2022-11-04T02:23:05;35.30;;;14.93;;
12214;SDS011;6170;42.206;24.142;2022-11-04T02:32:03;29.20;;;13.70;;
12214;SDS011;6170;42.206;24.142;2022-11-04T02:34:42;26.88;;;12.52;;
12214;SDS011;6170;42.206;24.142;2022-11-04T02:37:21;24.40;;;13.85;;
12214;SDS011;6170;42.206;24.142;2022-11-04T02:39:59;27.67;;;14.18;;
12214;SDS011;6170;42.206;24.142;2022-11-04T02:42:35;27.35;;;14.20;;
12214;SDS011;6170;42.206;24.142;2022-11-04T02:45:09;24.00;;;13.63;;
12214;SDS011;6170;42.206;24.142;2022-11-04T02:47:42;28.85;;;14.68;;
12214;SDS011;6170;42.206;24.142;2022-11-04T02:50:16;29.08;;;14.48;;
12214;SDS011;6170;42.206;24.142;2022-11-04T02:52:55;30.38;;;14.73;;
12214;SDS011;6170;42.206;24.142;2022-11-04T02:55:26;26.02;;;14.68;;
12214;SDS011;6170;42.206;24.142;2022-11-04T02:57:55;37.50;;;14.93;;
12214;SDS011;6170;42.206;24.142;2022-11-04T03:00:27;30.08;;;14.68;;
12214;SDS011;6170;42.206;24.142;2022-11-04T03:02:55;23.50;;;14.25;;
12214;SDS011;6170;42.206;24.142;2022-11-04T03:05:26;27.77;;;14.65;;
12214;SDS011;6170;42.206;24.142;2022-11-04T03:07:56;29.95;;;14.25;;
12214;SDS011;6170;42.206;24.142;2022-11-04T03:10:29;25.20;;;14.17;;
12214;SDS011;6170;42.206;24.142;2022-11-04T03:13:01;25.83;;;13.95;;
12214;SDS011;6170;42.206;24.142;2022-11-04T03:15:36;26.63;;;13.73;;
12214;SDS011;6170;42.206;24.142;2022-11-04T03:18:07;25.20;;;14.60;;
12214;SDS011;6170;42.206;24.142;2022-11-04T03:20:41;31.52;;;14.30;;
12214;SDS011;6170;42.206;24.142;2022-11-04T03:23:11;24.70;;;13.65;;
12214;SDS011;6170;42.206;24.142;2022-11-04T03:25:39;26.63;;;13.57;;
12214;SDS011;6170;42.206;24.142;2022-11-04T03:28:13;27.88;;;13.27;;
12214;SDS011;6170;42.206;24.142;2022-11-04T03:30:52;27.33;;;14.07;;
12214;SDS011;6170;42.206;24.142;2022-11-04T03:33:24;30.73;;;13.63;;
12214;SDS011;6170;42.206;24.142;2022-11-04T03:35:59;26.67;;;13.60;;
12214;SDS011;6170;42.206;24.142;2022-11-04T03:38:27;23.33;;;12.88;;
12214;SDS011;6170;42.206;24.142;2022-11-04T03:40:54;26.08;;;13.23;;
12214;SDS011;6170;42.206;24.142;2022-11-04T03:43:21;26.85;;;14.13;;
12214;SDS011;6170;42.206;24.142;2022-11-04T03:45:53;26.20;;;13.77;;
12214;SDS011;6170;42.206;24.142;2022-11-04T03:48:20;23.58;;;11.73;;
12214;SDS011;6170;42.206;24.142;2022-11-04T03:50:48;26.08;;;12.60;;
12214;SDS011;6170;42.206;24.142;2022-11-04T03:53:16;29.55;;;14.02;;
12214;SDS011;6170;42.206;24.142;2022-11-04T03:55:49;21.75;;;12.55;;
12214;SDS011;6170;42.206;24.142;2022-11-04T03:58:29;23.65;;;12.93;;
12214;SDS011;6170;42.206;24.142;2022-11-04T04:01:06;30.15;;;12.52;;
12214;SDS011;6170;42.206;24.142;2022-11-04T04:03:48;27.60;;;13.18;;
12214;SDS011;6170;42.206;24.142;2022-11-04T04:06:23;28.40;;;14.13;;
12214;SDS011;6170;42.206;24.142;2022-11-04T04:08:52;24.90;;;13.27;;
12214;SDS011;6170;42.206;24.142;2022-11-04T04:11:25;23.50;;;13.23;;
12214;SDS011;6170;42.206;24.142;2022-11-04T04:14:01;24.05;;;13.02;;
12214;SDS011;6170;42.206;24.142;2022-11-04T04:16:34;28.02;;;13.32;;
12214;SDS011;6170;42.206;24.142;2022-11-04T04:19:05;28.17;;;13.55;;
12214;SDS011;6170;42.206;24.142;2022-11-04T04:21:38;22.33;;;12.77;;
12214;SDS011;6170;42.206;24.142;2022-11-04T04:24:10;20.70;;;13.18;;
12214;SDS011;6170;42.206;24.142;2022-11-04T04:26:58;25.13;;;13.50;;
12214;SDS011;6170;42.206;24.142;2022-11-04T04:29:44;29.27;;;13.88;;
12214;SDS011;6170;42.206;24.142;2022-11-04T04:32:13;22.65;;;13.15;;
12214;SDS011;6170;42.206;24.142;2022-11-04T04:34:41;157.80;;;21.58;;
12214;SDS011;6170;42.206;24.142;2022-11-04T04:37:10;175.90;;;22.75;;
12214;SDS011;6170;42.206;24.142;2022-11-04T04:39:44;44.45;;;14.30;;
12214;SDS011;6170;42.206;24.142;2022-11-04T04:42:31;27.38;;;14.95;;
12214;SDS011;6170;42.206;24.142;2022-11-04T04:45:19;31.67;;;16.63;;
12214;SDS011;6170;42.206;24.142;2022-11-04T04:47:49;45.25;;;20.67;;
12214;SDS011;6170;42.206;24.142;2022-11-04T04:50:17;37.03;;;23.60;;
12214;SDS011;6170;42.206;24.142;2022-11-04T04:52:47;48.38;;;20.38;;
12214;SDS011;6170;42.206;24.142;2022-11-04T04:55:17;32.85;;;21.25;;
12214;SDS011;6170;42.206;24.142;2022-11-04T04:57:44;46.67;;;20.80;;
12214;SDS011;6170;42.206;24.142;2022-11-04T05:00:12;38.03;;;20.38;;
12214;SDS011;6170;42.206;24.142;2022-11-04T05:02:41;43.85;;;21.85;;
12214;SDS011;6170;42.206;24.142;2022-11-04T05:05:09;32.00;;;18.17;;
12214;SDS011;6170;42.206;24.142;2022-11-04T05:07:37;38.10;;;16.42;;
12214;SDS011;6170;42.206;24.142;2022-11-04T05:10:05;39.22;;;19.70;;
12214;SDS011;6170;42.206;24.142;2022-11-04T05:12:33;44.53;;;24.15;;
12214;SDS011;6170;42.206;24.142;2022-11-04T05:15:14;49.35;;;25.92;;
12214;SDS011;6170;42.206;24.142;2022-11-04T05:17:41;41.67;;;22.25;;
12214;SDS011;6170;42.206;24.142;2022-11-04T05:20:10;40.70;;;20.55;;
12214;SDS011;6170;42.206;24.142;2022-11-04T05:22:37;41.10;;;18.67;;
12214;SDS011;6170;42.206;24.142;2022-11-04T05:25:04;56.85;;;29.25;;
12214;SDS011;6170;42.206;24.142;2022-11-04T05:27:31;43.22;;;21.67;;
12214;SDS011;6170;42.206;24.142;2022-11-04T05:29:58;47.50;;;18.50;;
12214;SDS011;6170;42.206;24.142;2022-11-04T05:32:24;43.75;;;16.50;;
12214;SDS011;6170;42.206;24.142;2022-11-04T05:34:54;43.00;;;19.48;;
12214;SDS011;6170;42.206;24.142;2022-11-04T05:37:22;48.28;;;19.98;;
12214;SDS011;6170;42.206;24.142;2022-11-04T05:39:49;35.42;;;20.63;;
12214;SDS011;6170;42.206;24.142;2022-11-04T05:42:16;38.72;;;19.73;;
12214;SDS011;6170;42.206;24.142;2022-11-04T05:44:42;39.03;;;19.48;;
12214;SDS011;6170;42.206;24.142;2022-11-04T05:47:09;47.38;;;20.67;;
12214;SDS011;6170;42.206;24.142;2022-11-04T05:49:36;40.40;;;20.38;;
12214;SDS011;6170;42.206;24.142;2022-11-04T05:52:04;37.03;;;19.83;;
12214;SDS011;6170;42.206;24.142;2022-11-04T05:54:32;37.20;;;18.52;;
12214;SDS011;6170;42.206;24.142;2022-11-04T05:56:59;31.85;;;18.17;;
12214;SDS011;6170;42.206;24.142;2022-11-04T05:59:25;32.45;;;16.65;;
12214;SDS011;6170;42.206;24.142;2022-11-04T06:01:52;27.95;;;15.10;;
12214;SDS011;6170;42.206;24.142;2022-11-04T06:04:19;46.72;;;16.45;;
12214;SDS011;6170;42.206;24.142;2022-11-04T06:06:46;59.60;;;16.42;;
12214;SDS011;6170;42.206;24.142;2022-11-04T06:09:12;35.22;;;15.18;;
12214;SDS011;6170;42.206;24.142;2022-11-04T06:11:40;34.22;;;14.57;;
12214;SDS011;6170;42.206;24.142;2022-11-04T06:14:07;29.65;;;14.88;;
12214;SDS011;6170;42.206;24.142;2022-11-04T06:16:34;35.63;;;16.27;;
12214;SDS011;6170;42.206;24.142;2022-11-04T06:19:01;47.17;;;16.50;;
12214;SDS011;6170;42.206;24.142;2022-11-04T06:21:28;54.65;;;16.60;;
12214;SDS011;6170;42.206;24.142;2022-11-04T06:23:56;48.35;;;15.57;;
12214;SDS011;6170;42.206;24.142;2022-11-04T06:26:24;33.90;;;15.77;;
12214;SDS011;6170;42.206;24.142;2022-11-04T06:28:54;67.85;;;18.05;;
12214;SDS011;6170;42.206;24.142;2022-11-04T06:31:21;31.83;;;15.98;;
12214;SDS011;6170;42.206;24.142;2022-11-04T06:33:47;39.90;;;18.13;;
12214;SDS011;6170;42.206;24.142;2022-11-04T06:36:14;48.35;;;23.95;;
12214;SDS011;6170;42.206;24.142;2022-11-04T06:38:42;53.75;;;23.70;;
12214;SDS011;6170;42.206;24.142;2022-11-04T06:41:10;47.17;;;22.70;;
12214;SDS011;6170;42.206;24.142;2022-11-04T06:43:38;41.28;;;20.75;;
12214;SDS011;6170;42.206;24.142;2022-11-04T06:46:20;39.33;;;20.35;;
12214;SDS011;6170;42.206;24.142;2022-11-04T06:48:50;32.38;;;17.95;;
12214;SDS011;6170;42.206;24.142;2022-11-04T06:51:17;48.33;;;16.88;;
12214;SDS011;6170;42.206;24.142;2022-11-04T06:53:44;39.25;;;17.60;;
12214;SDS011;6170;42.206;24.142;2022-11-04T06:56:11;33.50;;;16.15;;
12214;SDS011;6170;42.206;24.142;2022-11-04T06:58:37;46.35;;;17.83;;
12214;SDS011;6170;42.206;24.142;2022-11-04T07:01:04;41.78;;;18.45;;
12214;SDS011;6170;42.206;24.142;2022-11-04T07:03:32;39.47;;;17.95;;
12214;SDS011;6170;42.206;24.142;2022-11-04T07:06:04;43.78;;;17.30;;
12214;SDS011;6170;42.206;24.142;2022-11-04T07:08:31;40.00;;;18.73;;
12214;SDS011;6170;42.206;24.142;2022-11-04T07:10:58;32.78;;;18.45;;
12214;SDS011;6170;42.206;24.142;2022-11-04T07:13:24;35.17;;;16.45;;
12214;SDS011;6170;42.206;24.142;2022-11-04T07:15:51;33.15;;;17.38;;
12214;SDS011;6170;42.206;24.142;2022-11-04T07:18:18;51.95;;;17.38;;
12214;SDS011;6170;42.206;24.142;2022-11-04T07:20:46;43.17;;;17.92;;
12214;SDS011;6170;42.206;24.142;2022-11-04T07:23:13;41.05;;;18.33;;
12214;SDS011;6170;42.206;24.142;2022-11-04T07:25:40;37.42;;;17.83;;
12214;SDS011;6170;42.206;24.142;2022-11-04T07:28:07;31.30;;;17.45;;
12214;SDS011;6170;42.206;24.142;2022-11-04T07:30:34;32.10;;;17.27;;
12214;SDS011;6170;42.206;24.142;2022-11-04T07:33:01;36.58;;;18.48;;
12214;SDS011;6170;42.206;24.142;2022-11-04T07:35:28;34.45;;;19.73;;
12214;SDS011;6170;42.206;24.142;2022-11-04T07:37:56;32.03;;;18.90;;
12214;SDS011;6170;42.206;24.142;2022-11-04T07:40:22;36.85;;;18.92;;
12214;SDS011;6170;42.206;24.142;2022-11-04T07:42:49;51.42;;;19.70;;
12214;SDS011;6170;42.206;24.142;2022-11-04T07:45:16;30.65;;;18.75;;
12214;SDS011;6170;42.206;24.142;2022-11-04T07:47:43;35.15;;;19.02;;
12214;SDS011;6170;42.206;24.142;2022-11-04T07:50:10;37.17;;;19.17;;
12214;SDS011;6170;42.206;24.142;2022-11-04T07:52:36;31.58;;;19.38;;
12214;SDS011;6170;42.206;24.142;2022-11-04T07:55:05;36.28;;;19.67;;
12214;SDS011;6170;42.206;24.142;2022-11-04T07:57:34;35.92;;;19.45;;
12214;SDS011;6170;42.206;24.142;2022-11-04T08:00:00;35.63;;;19.60;;
12214;SDS011;6170;42.206;24.142;2022-11-04T08:02:28;39.05;;;19.77;;
12214;SDS011;6170;42.206;24.142;2022-11-04T08:04:55;42.60;;;21.27;;
12214;SDS011;6170;42.206;24.142;2022-11-04T08:07:22;38.50;;;20.30;;
12214;SDS011;6170;42.206;24.142;2022-11-04T08:09:48;42.50;;;22.15;;
12214;SDS011;6170;42.206;24.142;2022-11-04T08:12:16;40.35;;;21.95;;
12214;SDS011;6170;42.206;24.142;2022-11-04T08:14:44;56.13;;;24.90;;
12214;SDS011;6170;42.206;24.142;2022-11-04T08:17:11;39.70;;;22.90;;
12214;SDS011;6170;42.206;24.142;2022-11-04T08:19:38;45.85;;;24.55;;
12214;SDS011;6170;42.206;24.142;2022-11-04T08:22:05;46.85;;;25.88;;
12214;SDS011;6170;42.206;24.142;2022-11-04T08:24:32;41.58;;;25.35;;
12214;SDS011;6170;42.206;24.142;2022-11-04T08:26:59;53.28;;;26.63;;
12214;SDS011;6170;42.206;24.142;2022-11-04T08:29:27;96.15;;;29.63;;
12214;SDS011;6170;42.206;24.142;2022-11-04T08:31:54;62.72;;;27.42;;
12214;SDS011;6170;42.206;24.142;2022-11-04T08:34:21;54.17;;;26.83;;
12214;SDS011;6170;42.206;24.142;2022-11-04T08:36:47;48.20;;;25.92;;
12214;SDS011;6170;42.206;24.142;2022-11-04T08:39:17;51.35;;;27.98;;
12214;SDS011;6170;42.206;24.142;2022-11-04T08:41:45;47.58;;;25.40;;
12214;SDS011;6170;42.206;24.142;2022-11-04T08:44:12;42.63;;;24.38;;
12214;SDS011;6170;42.206;24.142;2022-11-04T08:46:41;43.45;;;23.88;;
12214;SDS011;6170;42.206;24.142;2022-11-04T08:49:10;48.13;;;25.00;;
12214;SDS011;6170;42.206;24.142;2022-11-04T08:51:38;46.78;;;22.75;;
12214;SDS011;6170;42.206;24.142;2022-11-04T08:54:07;37.95;;;23.08;;
12214;SDS011;6170;42.206;24.142;2022-11-04T08:56:35;42.08;;;23.63;;
12214;SDS011;6170;42.206;24.142;2022-11-04T08:59:03;47.55;;;24.90;;
12214;SDS011;6170;42.206;24.142;2022-11-04T09:01:32;46.67;;;24.13;;
12214;SDS011;6170;42.206;24.142;2022-11-04T09:04:02;42.40;;;22.38;;
12214;SDS011;6170;42.206;24.142;2022-11-04T09:06:30;48.97;;;24.35;;
12214;SDS011;6170;42.206;24.142;2022-11-04T09:08:59;42.03;;;23.92;;
12214;SDS011;6170;42.206;24.142;2022-11-04T09:11:28;39.00;;;22.55;;
12214;SDS011;6170;42.206;24.142;2022-11-04T09:13:57;58.13;;;30.23;;
12214;SDS011;6170;42.206;24.142;2022-11-04T09:16:25;44.75;;;24.65;;
12214;SDS011;6170;42.206;24.142;2022-11-04T09:18:52;51.85;;;24.65;;
12214;SDS011;6170;42.206;24.142;2022-11-04T09:21:22;43.97;;;24.27;;
12214;SDS011;6170;42.206;24.142;2022-11-04T09:23:49;41.95;;;23.15;;
12214;SDS011;6170;42.206;24.142;2022-11-04T09:26:16;45.55;;;23.38;;
12214;SDS011;6170;42.206;24.142;2022-11-04T09:28:43;43.47;;;24.20;;
12214;SDS011;6170;42.206;24.142;2022-11-04T09:31:11;49.60;;;23.20;;
12214;SDS011;6170;42.206;24.142;2022-11-04T09:33:40;48.63;;;23.40;;
12214;SDS011;6170;42.206;24.142;2022-11-04T09:36:07;41.92;;;22.70;;
12214;SDS011;6170;42.206;24.142;2022-11-04T09:38:36;41.80;;;22.55;;
12214;SDS011;6170;42.206;24.142;2022-11-04T09:41:07;41.45;;;22.02;;
12214;SDS011;6170;42.206;24.142;2022-11-04T09:43:45;44.70;;;23.67;;
12214;SDS011;6170;42.206;24.142;2022-11-04T09:46:19;39.13;;;22.80;;
12214;SDS011;6170;42.206;24.142;2022-11-04T09:48:47;45.78;;;22.30;;
12214;SDS011;6170;42.206;24.142;2022-11-04T09:51:18;40.20;;;24.15;;
12214;SDS011;6170;42.206;24.142;2022-11-04T09:53:49;50.92;;;23.67;;
12214;SDS011;6170;42.206;24.142;2022-11-04T09:56:19;42.95;;;22.77;;
12214;SDS011;6170;42.206;24.142;2022-11-04T09:58:48;39.53;;;22.27;;
12214;SDS011;6170;42.206;24.142;2022-11-04T10:01:19;39.22;;;22.35;;
12214;SDS011;6170;42.206;24.142;2022-11-04T10:04:00;43.85;;;23.50;;
12214;SDS011;6170;42.206;24.142;2022-11-04T10:06:39;39.28;;;23.13;;
12214;SDS011;6170;42.206;24.142;2022-11-04T10:09:19;44.75;;;23.55;;
12214;SDS011;6170;42.206;24.142;2022-11-04T10:11:58;37.97;;;23.00;;
12214;SDS011;6170;42.206;24.142;2022-11-04T10:14:41;41.35;;;24.75;;
12214;SDS011;6170;42.206;24.142;2022-11-04T10:17:22;40.35;;;23.85;;
12214;SDS011;6170;42.206;24.142;2022-11-04T10:20:07;45.28;;;24.02;;
12214;SDS011;6170;42.206;24.142;2022-11-04T10:22:48;41.40;;;24.27;;
12214;SDS011;6170;42.206;24.142;2022-11-04T10:25:24;45.22;;;24.77;;
12214;SDS011;6170;42.206;24.142;2022-11-04T10:27:55;46.67;;;25.08;;
12214;SDS011;6170;42.206;24.142;2022-11-04T10:30:24;44.97;;;24.27;;
12214;SDS011;6170;42.206;24.142;2022-11-04T10:32:56;44.88;;;24.77;;
12214;SDS011;6170;42.206;24.142;2022-11-04T10:35:29;49.42;;;25.23;;
12214;SDS011;6170;42.206;24.142;2022-11-04T10:38:14;50.65;;;24.73;;
12214;SDS011;6170;42.206;24.142;2022-11-04T10:40:46;46.70;;;24.27;;
12214;SDS011;6170;42.206;24.142;2022-11-04T10:43:15;46.72;;;24.45;;
12214;SDS011;6170;42.206;24.142;2022-11-04T10:45:51;44.67;;;24.40;;
12214;SDS011;6170;42.206;24.142;2022-11-04T10:48:39;48.63;;;25.75;;
12214;SDS011;6170;42.206;24.142;2022-11-04T10:51:10;52.95;;;26.50;;
12214;SDS011;6170;42.206;24.142;2022-11-04T10:53:37;52.05;;;26.60;;
12214;SDS011;6170;42.206;24.142;2022-11-04T10:56:09;35.95;;;22.45;;
12214;SDS011;6170;42.206;24.142;2022-11-04T10:58:43;39.47;;;24.33;;
12214;SDS011;6170;42.206;24.142;2022-11-04T11:01:22;38.17;;;21.42;;
12214;SDS011;6170;42.206;24.142;2022-11-04T11:03:50;50.55;;;30.05;;
12214;SDS011;6170;42.206;24.142;2022-11-04T11:06:23;43.92;;;24.50;;
12214;SDS011;6170;42.206;24.142;2022-11-04T11:08:53;38.92;;;22.17;;
12214;SDS011;6170;42.206;24.142;2022-11-04T11:14:15;40.80;;;23.45;;
12214;SDS011;6170;42.206;24.142;2022-11-04T11:16:45;44.55;;;23.40;;
12214;SDS011;6170;42.206;24.142;2022-11-04T11:19:14;41.40;;;23.65;;
12214;SDS011;6170;42.206;24.142;2022-11-04T11:21:43;40.45;;;22.98;;
12214;SDS011;6170;42.206;24.142;2022-11-04T11:24:12;38.90;;;21.02;;
12214;SDS011;6170;42.206;24.142;2022-11-04T11:26:43;40.70;;;22.48;;
12214;SDS011;6170;42.206;24.142;2022-11-04T11:29:14;42.35;;;21.92;;
12214;SDS011;6170;42.206;24.142;2022-11-04T11:31:46;43.53;;;22.25;;
12214;SDS011;6170;42.206;24.142;2022-11-04T11:34:17;37.38;;;21.92;;
12214;SDS011;6170;42.206;24.142;2022-11-04T11:36:46;35.45;;;21.27;;
12214;SDS011;6170;42.206;24.142;2022-11-04T11:39:16;36.83;;;20.80;;
12214;SDS011;6170;42.206;24.142;2022-11-04T11:41:55;57.42;;;28.42;;
12214;SDS011;6170;42.206;24.142;2022-11-04T11:44:27;42.60;;;22.60;;
12214;SDS011;6170;42.206;24.142;2022-11-04T11:46:57;36.08;;;21.02;;
12214;SDS011;6170;42.206;24.142;2022-11-04T11:49:27;41.20;;;21.50;;
12214;SDS011;6170;42.206;24.142;2022-11-04T11:52:15;43.28;;;21.58;;
12214;SDS011;6170;42.206;24.142;2022-11-04T11:54:49;37.92;;;22.95;;
12214;SDS011;6170;42.206;24.142;2022-11-04T11:57:25;51.63;;;24.98;;
12214;SDS011;6170;42.206;24.142;2022-11-04T12:00:01;39.63;;;22.75;;
12214;SDS011;6170;42.206;24.142;2022-11-04T12:02:33;38.55;;;20.98;;
12214;SDS011;6170;42.206;24.142;2022-11-04T12:05:07;35.13;;;20.40;;
12214;SDS011;6170;42.206;24.142;2022-11-04T12:07:37;37.85;;;21.38;;
12214;SDS011;6170;42.206;24.142;2022-11-04T12:10:14;35.47;;;22.95;;
12214;SDS011;6170;42.206;24.142;2022-11-04T12:12:56;37.05;;;20.48;;
12214;SDS011;6170;42.206;24.142;2022-11-04T12:15:39;39.95;;;21.17;;
12214;SDS011;6170;42.206;24.142;2022-11-04T12:18:17;43.25;;;25.75;;
12214;SDS011;6170;42.206;24.142;2022-11-04T12:20:56;44.25;;;22.23;;
12214;SDS011;6170;42.206;24.142;2022-11-04T12:23:34;38.80;;;22.83;;
12214;SDS011;6170;42.206;24.142;2022-11-04T12:26:09;36.30;;;21.17;;
12214;SDS011;6170;42.206;24.142;2022-11-04T12:28:49;33.38;;;20.92;;
12214;SDS011;6170;42.206;24.142;2022-11-04T12:31:27;36.85;;;21.05;;
12214;SDS011;6170;42.206;24.142;2022-11-04T12:34:07;41.63;;;21.50;;
12214;SDS011;6170;42.206;24.142;2022-11-04T12:36:45;47.22;;;25.63;;
12214;SDS011;6170;42.206;24.142;2022-11-04T12:39:29;52.72;;;25.77;;
12214;SDS011;6170;42.206;24.142;2022-11-04T12:42:15;38.65;;;21.10;;
12214;SDS011;6170;42.206;24.142;2022-11-04T12:44:51;49.65;;;23.65;;
12214;SDS011;6170;42.206;24.142;2022-11-04T12:47:27;69.82;;;24.23;;
12214;SDS011;6170;42.206;24.142;2022-11-04T12:50:05;49.63;;;22.48;;
12214;SDS011;6170;42.206;24.142;2022-11-04T12:52:55;44.22;;;22.58;;
12214;SDS011;6170;42.206;24.142;2022-11-04T12:55:34;57.33;;;23.98;;
12214;SDS011;6170;42.206;24.142;2022-11-04T12:58:15;38.13;;;22.98;;
12214;SDS011;6170;42.206;24.142;2022-11-04T13:00:56;51.70;;;26.73;;
12214;SDS011;6170;42.206;24.142;2022-11-04T13:03:31;46.95;;;25.05;;
12214;SDS011;6170;42.206;24.142;2022-11-04T13:06:03;43.50;;;24.77;;
12214;SDS011;6170;42.206;24.142;2022-11-04T13:08:37;58.58;;;25.08;;
12214;SDS011;6170;42.206;24.142;2022-11-04T13:11:08;44.03;;;25.27;;
12214;SDS011;6170;42.206;24.142;2022-11-04T13:13:48;44.05;;;24.23;;
12214;SDS011;6170;42.206;24.142;2022-11-04T13:16:21;41.37;;;23.77;;
12214;SDS011;6170;42.206;24.142;2022-11-04T13:18:48;46.17;;;24.27;;
12214;SDS011;6170;42.206;24.142;2022-11-04T13:21:17;40.17;;;24.08;;
12214;SDS011;6170;42.206;24.142;2022-11-04T13:23:49;73.35;;;27.17;;
12214;SDS011;6170;42.206;24.142;2022-11-04T13:28:49;66.55;;;24.85;;
12214;SDS011;6170;42.206;24.142;2022-11-04T13:31:28;53.65;;;24.17;;
12214;SDS011;6170;42.206;24.142;2022-11-04T13:34:00;51.53;;;24.67;;
12214;SDS011;6170;42.206;24.142;2022-11-04T13:36:35;62.03;;;25.27;;
12214;SDS011;6170;42.206;24.142;2022-11-04T13:41:39;47.28;;;22.98;;
12214;SDS011;6170;42.206;24.142;2022-11-04T13:44:28;40.63;;;24.45;;
12214;SDS011;6170;42.206;24.142;2022-11-04T13:47:02;40.53;;;24.23;;
12214;SDS011;6170;42.206;24.142;2022-11-04T13:49:31;38.03;;;23.37;;
12214;SDS011;6170;42.206;24.142;2022-11-04T13:52:03;44.88;;;23.90;;
12214;SDS011;6170;42.206;24.142;2022-11-04T13:54:36;41.70;;;23.65;;
12214;SDS011;6170;42.206;24.142;2022-11-04T13:57:07;46.80;;;24.63;;
12214;SDS011;6170;42.206;24.142;2022-11-04T13:59:36;42.85;;;24.35;;
12214;SDS011;6170;42.206;24.142;2022-11-04T14:02:31;47.20;;;23.73;;
12214;SDS011;6170;42.206;24.142;2022-11-04T14:08:17;50.58;;;24.63;;
12214;SDS011;6170;42.206;24.142;2022-11-04T14:10:45;48.70;;;23.90;;
12214;SDS011;6170;42.206;24.142;2022-11-04T14:16:12;100.45;;;28.52;;
12214;SDS011;6170;42.206;24.142;2022-11-04T14:22:36;143.98;;;31.40;;
12214;SDS011;6170;42.206;24.142;2022-11-04T14:25:23;104.20;;;26.58;;
12214;SDS011;6170;42.206;24.142;2022-11-04T14:27:53;56.42;;;23.40;;
12214;SDS011;6170;42.206;24.142;2022-11-04T14:30:32;46.83;;;23.48;;
12214;SDS011;6170;42.206;24.142;2022-11-04T14:33:02;48.28;;;23.60;;
12214;SDS011;6170;42.206;24.142;2022-11-04T14:35:32;50.85;;;23.98;;
12214;SDS011;6170;42.206;24.142;2022-11-04T14:38:04;158.32;;;29.70;;
12214;SDS011;6170;42.206;24.142;2022-11-04T14:43:15;57.60;;;23.27;;
12214;SDS011;6170;42.206;24.142;2022-11-04T14:45:51;50.10;;;22.58;;
12214;SDS011;6170;42.206;24.142;2022-11-04T14:48:20;53.88;;;24.38;;
12214;SDS011;6170;42.206;24.142;2022-11-04T14:50:50;51.55;;;23.63;;
12214;SDS011;6170;42.206;24.142;2022-11-04T14:53:21;49.58;;;23.42;;
12214;SDS011;6170;42.206;24.142;2022-11-04T14:56:01;58.40;;;25.83;;
12214;SDS011;6170;42.206;24.142;2022-11-04T14:58:29;49.33;;;25.23;;
12214;SDS011;6170;42.206;24.142;2022-11-04T15:00:56;58.88;;;23.83;;
12214;SDS011;6170;42.206;24.142;2022-11-04T15:03:26;50.10;;;24.38;;
12214;SDS011;6170;42.206;24.142;2022-11-04T15:06:00;59.78;;;24.30;;
12214;SDS011;6170;42.206;24.142;2022-11-04T15:08:30;50.90;;;25.17;;
12214;SDS011;6170;42.206;24.142;2022-11-04T15:11:00;49.72;;;25.00;;
12214;SDS011;6170;42.206;24.142;2022-11-04T15:13:31;61.70;;;26.67;;